HRGA4: Little River, Horatio, AR

Data processed at Sat Aug 19 2017 22:45


All information presented herein is the property of the government of the United States of America and may be revised or deleted at any time without prior notice.
Dissemination of this information without the expressed written consent of the Public Affairs Office, Tulsa District U.S. Army Corps of Engineers is strictly prohibited.
These data are gathered electronically and, as presented, have not undergone any form of quality control. These data are not guaranteed to be valid or correct.
Go to home page.
Go to station list.

Upstream stations:

Downstream station:
Previous Day
Next Day
Current Day
    
SHEF ID:       HRGA4     Little River near Horatio, AR
STATION TYPE:  

               PRECIP     STAGE  RIV-FLOW  BAT-LOAD
                   in        ft       cfs      volt
              Ccp-Rev   Ccp-Rev   Ccp-Rev   Ccp-Rev
(US/Central)
08/19 00:00      0.00      8.79      2973     13.05
08/19 01:00      0.00      8.65      2865     12.97
08/19 02:00      0.00      8.54      2785     12.97
08/19 03:00      0.00      8.47      2734     12.97
08/19 04:00      0.00      8.48      2741     12.97
08/19 05:00      0.00      8.57      2807     12.89
08/19 06:00      0.00      8.67      2879     12.89
08/19 07:00      0.00      8.77      2957     12.89
08/19 08:00      0.00      8.82      2997     12.89
08/19 09:00      0.00      8.82      2997     12.89
08/19 10:00      0.00      8.79      2973     12.97
08/19 11:00      0.00      8.71      2909     13.13
08/19 12:00      0.00      8.64      2857     13.44
08/19 13:00      0.00      8.54      2785     13.37
08/19 14:00      0.00      8.43      2705     13.29
08/19 15:00      0.00      8.32      2626     13.21
08/19 16:00      0.00      8.19      2534     13.13
08/19 17:00      0.00      8.07      2449     13.13
08/19 18:00      0.00      7.96      2371     13.13
08/19 19:00      0.00      7.86      2301     13.05
08/19 20:00      0.00      7.75      2224     13.05
08/19 21:00      0.00      7.63      2141     13.05
08/19 22:00      0.00      7.53      2072     12.97
08/19 23:00      ----      ----      ----      ----